createdAt,value
2023-05-13T00:02:15.382Z,10.10
2023-05-13T00:06:37.775Z,10.10
2023-05-13T00:11:00.108Z,10.00
2023-05-13T00:15:22.578Z,10.00
2023-05-13T00:19:44.544Z,10.00
2023-05-13T00:24:07.125Z,9.90
2023-05-13T00:28:28.958Z,9.90
2023-05-13T00:32:51.156Z,9.90
2023-05-13T00:37:14.317Z,9.80
2023-05-13T00:41:36.526Z,9.60
2023-05-13T00:45:59.947Z,9.60
2023-05-13T00:50:22.181Z,9.40
2023-05-13T00:54:44.432Z,9.20
2023-05-13T00:59:06.376Z,9.10
2023-05-13T01:03:42.813Z,8.90
2023-05-13T01:08:38.126Z,8.70
2023-05-13T01:13:04.676Z,8.50
2023-05-13T01:17:36.503Z,8.30
2023-05-13T01:21:58.429Z,8.30
2023-05-13T01:26:22.620Z,8.30
2023-05-13T01:30:47.817Z,8.30
2023-05-13T01:35:12.136Z,8.30
2023-05-13T01:39:39.253Z,8.40
2023-05-13T01:44:06.628Z,8.40
2023-05-13T01:48:29.285Z,8.30
2023-05-13T01:52:52.815Z,8.10
2023-05-13T01:57:15.077Z,8.00
2023-05-13T02:01:37.248Z,8.00
2023-05-13T02:05:59.379Z,7.90
2023-05-13T02:10:21.750Z,7.90
2023-05-13T02:14:44.237Z,7.80
2023-05-13T02:19:07.063Z,7.70
2023-05-13T02:23:29.574Z,7.60
2023-05-13T02:27:51.602Z,7.40
2023-05-13T02:32:13.557Z,7.20
2023-05-13T02:36:35.678Z,7.10
2023-05-13T02:41:01.717Z,7.00
2023-05-13T02:45:24.244Z,6.90
2023-05-13T02:49:50.959Z,6.90
2023-05-13T02:54:13.657Z,6.90
2023-05-13T02:58:36.406Z,6.90
2023-05-13T03:02:59.283Z,6.90
2023-05-13T03:07:21.617Z,6.90
2023-05-13T03:11:43.977Z,6.90
2023-05-13T03:16:05.900Z,6.80
2023-05-13T03:20:28.278Z,6.70
2023-05-13T03:24:51.840Z,6.60
2023-05-13T03:29:16.148Z,6.50
2023-05-13T03:33:38.855Z,6.60
2023-05-13T03:38:01.864Z,6.50
2023-05-13T03:42:24.846Z,6.50
2023-05-13T03:46:47.920Z,6.60
2023-05-13T03:51:10.575Z,6.80
2023-05-13T03:55:34.537Z,6.80
2023-05-13T03:59:56.641Z,7.10
2023-05-13T04:04:18.586Z,7.70
2023-05-13T04:08:41.199Z,8.40
2023-05-13T04:13:04.405Z,8.70
2023-05-13T04:17:26.263Z,8.80
2023-05-13T04:21:48.037Z,9.10
2023-05-13T04:26:11.603Z,11.20
2023-05-13T04:30:35.212Z,13.90
2023-05-13T04:34:57.318Z,16.10
2023-05-13T04:39:21.340Z,17.80
2023-05-13T04:43:43.476Z,19.10
2023-05-13T04:48:07.405Z,20.40
2023-05-13T04:52:30.840Z,21.70
2023-05-13T04:56:53.380Z,23.00
2023-05-13T05:01:16.101Z,24.00
2023-05-13T05:05:38.635Z,25.10
2023-05-13T05:10:02.581Z,26.80
2023-05-13T05:14:26.771Z,28.30
2023-05-13T05:18:49.870Z,29.10
2023-05-13T05:23:12.657Z,29.10
2023-05-13T05:27:35.017Z,29.60
2023-05-13T05:31:57.812Z,30.90
2023-05-13T05:36:21.508Z,31.70
2023-05-13T05:40:45.659Z,31.60
2023-05-13T05:45:08.634Z,31.80
2023-05-13T05:49:31.851Z,32.20
2023-05-13T05:53:54.656Z,32.70
2023-05-13T05:58:17.532Z,33.20
2023-05-13T06:02:41.057Z,33.10
2023-05-13T06:07:03.929Z,34.30
2023-05-13T06:11:25.858Z,34.40
2023-05-13T06:15:48.055Z,32.50
2023-05-13T06:20:10.980Z,29.90
2023-05-13T06:24:33.097Z,29.40
2023-05-13T06:28:54.965Z,28.10
2023-05-13T06:33:17.158Z,28.00
2023-05-13T06:37:39.278Z,29.50
2023-05-13T06:42:02.067Z,29.20
2023-05-13T06:46:28.488Z,27.50
2023-05-13T06:50:51.210Z,26.40
2023-05-13T06:55:13.438Z,27.20
2023-05-13T06:59:36.302Z,27.30
2023-05-13T07:03:58.562Z,28.00
2023-05-13T07:08:20.551Z,28.20
2023-05-13T07:12:42.491Z,29.50
2023-05-13T07:17:04.661Z,29.30
2023-05-13T07:21:26.952Z,29.50
2023-05-13T07:25:50.134Z,29.30
2023-05-13T07:30:13.008Z,28.80
2023-05-13T07:34:34.958Z,28.90
2023-05-13T07:38:56.995Z,28.40
2023-05-13T07:43:24.167Z,29.90
2023-05-13T07:47:46.084Z,31.60
2023-05-13T07:52:08.275Z,32.20
2023-05-13T07:56:30.764Z,33.00
2023-05-13T08:00:52.829Z,33.20
2023-05-13T08:05:15.062Z,32.30
2023-05-13T08:09:37.038Z,31.60
2023-05-13T08:13:58.878Z,31.90
2023-05-13T08:18:20.907Z,31.50
2023-05-13T08:22:43.854Z,29.40
2023-05-13T08:27:05.915Z,30.70
2023-05-13T08:31:27.996Z,33.60
2023-05-13T08:35:50.395Z,34.10
2023-05-13T08:40:12.774Z,32.00
2023-05-13T08:44:39.991Z,28.80
2023-05-13T08:49:02.546Z,30.60
2023-05-13T08:53:26.715Z,32.30
2023-05-13T08:57:48.937Z,31.60
2023-05-13T09:02:12.212Z,32.40
2023-05-13T09:06:34.641Z,29.50
2023-05-13T09:10:57.099Z,27.30
2023-05-13T09:15:22.966Z,26.10
2023-05-13T09:19:45.482Z,27.40
2023-05-13T09:24:11.415Z,31.50
2023-05-13T09:28:33.856Z,29.20
2023-05-13T09:33:13.989Z,28.10
2023-05-13T09:37:36.457Z,27.70
2023-05-13T09:41:58.960Z,28.00
2023-05-13T09:46:21.711Z,28.90
2023-05-13T09:50:51.610Z,29.50
2023-05-13T09:55:14.534Z,29.60
2023-05-13T09:59:36.597Z,29.90
2023-05-13T10:03:59.816Z,27.80
2023-05-13T10:08:23.997Z,26.00
2023-05-13T10:12:47.101Z,23.60
2023-05-13T10:17:10.004Z,21.30
2023-05-13T10:21:33.037Z,20.00
2023-05-13T10:25:58.200Z,19.80
2023-05-13T10:30:26.455Z,20.00
2023-05-13T10:34:49.295Z,19.90
2023-05-13T10:39:31.335Z,20.70
2023-05-13T10:44:00.364Z,20.40
2023-05-13T10:48:23.546Z,19.40
2023-05-13T10:52:49.577Z,18.50
2023-05-13T10:57:13.669Z,16.80
2023-05-13T11:01:44.411Z,15.20
2023-05-13T11:06:19.627Z,14.00
2023-05-13T11:10:42.131Z,13.70
2023-05-13T11:15:22.532Z,13.90
2023-05-13T11:19:51.088Z,14.50
2023-05-13T11:24:19.206Z,15.10
2023-05-13T11:29:06.755Z,15.60
2023-05-13T11:34:11.597Z,16.20
2023-05-13T11:38:34.716Z,16.20
2023-05-13T11:42:58.280Z,16.30
2023-05-13T11:47:27.715Z,16.60
2023-05-13T11:51:49.873Z,16.80
2023-05-13T11:56:13.118Z,16.90
2023-05-13T12:00:35.817Z,17.00
2023-05-13T12:05:04.559Z,16.90
2023-05-13T12:09:26.907Z,16.80
2023-05-13T12:13:49.084Z,16.90
2023-05-13T12:18:11.520Z,16.90
2023-05-13T12:22:35.215Z,17.10
2023-05-13T12:27:08.769Z,16.90
2023-05-13T12:31:32.916Z,17.00
2023-05-13T12:36:20.922Z,17.30
2023-05-13T12:40:44.038Z,17.80
2023-05-13T12:45:07.352Z,18.10
2023-05-13T12:49:29.464Z,18.60
2023-05-13T12:53:54.399Z,18.50
2023-05-13T12:58:16.382Z,18.30
2023-05-13T13:02:41.331Z,18.00
2023-05-13T13:07:03.877Z,17.80
2023-05-13T13:11:25.759Z,18.00
2023-05-13T13:15:47.957Z,17.90
2023-05-13T13:20:10.689Z,18.10
2023-05-13T13:24:32.681Z,18.10
2023-05-13T13:28:54.899Z,18.20
2023-05-13T13:33:17.640Z,18.10
2023-05-13T13:37:40.085Z,18.20
2023-05-13T13:42:04.861Z,18.10
2023-05-13T13:46:26.820Z,18.60
2023-05-13T13:50:50.557Z,18.40
2023-05-13T13:55:14.632Z,18.50
2023-05-13T13:59:36.677Z,18.60
2023-05-13T14:04:19.939Z,18.80
2023-05-13T14:08:42.055Z,18.50
2023-05-13T14:13:04.462Z,18.50
2023-05-13T14:17:26.443Z,18.20
2023-05-13T14:21:48.792Z,18.00
2023-05-13T14:26:15.867Z,18.20
2023-05-13T14:30:37.956Z,18.10
2023-05-13T14:34:59.977Z,17.90
2023-05-13T14:39:22.391Z,17.40
2023-05-13T14:43:44.257Z,17.20
2023-05-13T14:48:06.367Z,17.70
2023-05-13T14:52:28.278Z,17.50
2023-05-13T14:56:52.535Z,17.40
2023-05-13T15:01:14.945Z,17.70
2023-05-13T15:05:36.921Z,17.70
2023-05-13T15:09:58.794Z,17.50
2023-05-13T15:14:26.038Z,17.50
2023-05-13T15:18:48.473Z,17.50
2023-05-13T15:23:10.695Z,17.20
2023-05-13T15:27:33.012Z,16.90
2023-05-13T15:31:54.912Z,16.90
2023-05-13T15:36:16.794Z,17.00
2023-05-13T15:40:39.192Z,17.10
2023-05-13T15:45:01.677Z,16.90
2023-05-13T15:49:23.855Z,17.10
2023-05-13T15:53:45.785Z,17.00
2023-05-13T15:58:07.975Z,17.00
2023-05-13T16:02:37.208Z,17.10
2023-05-13T16:06:59.436Z,16.90
2023-05-13T16:11:21.722Z,16.60
2023-05-13T16:15:43.597Z,16.80
2023-05-13T16:20:06.543Z,16.90
2023-05-13T16:24:28.434Z,17.00
2023-05-13T16:28:50.737Z,16.70
2023-05-13T16:33:15.255Z,16.60
2023-05-13T16:37:37.621Z,16.50
2023-05-13T16:41:59.662Z,16.40
2023-05-13T16:46:21.378Z,16.20
2023-05-13T16:50:43.495Z,16.10
2023-05-13T16:55:06.667Z,16.00
2023-05-13T16:59:29.310Z,15.80
2023-05-13T17:03:51.468Z,15.90
2023-05-13T17:08:13.700Z,15.90
2023-05-13T17:12:35.781Z,15.90
2023-05-13T17:16:58.074Z,15.80
2023-05-13T17:21:20.135Z,15.60
2023-05-13T17:25:42.318Z,15.50
2023-05-13T17:30:04.615Z,15.40
2023-05-13T17:34:26.795Z,15.30
2023-05-13T17:38:50.002Z,15.30
2023-05-13T17:43:12.201Z,15.10
2023-05-13T17:47:34.209Z,15.00
2023-05-13T17:51:56.082Z,14.90
2023-05-13T17:56:18.102Z,14.80
2023-05-13T18:00:40.222Z,14.70
2023-05-13T18:05:02.928Z,14.60
2023-05-13T18:09:25.609Z,14.50
2023-05-13T18:13:47.845Z,14.40
2023-05-13T18:18:10.122Z,14.40
2023-05-13T18:22:32.564Z,14.30
2023-05-13T18:26:54.364Z,14.20
2023-05-13T18:31:16.703Z,14.10
2023-05-13T18:35:40.389Z,14.00
2023-05-13T18:40:03.195Z,13.90
2023-05-13T18:44:25.827Z,13.90
2023-05-13T18:48:47.956Z,13.90
2023-05-13T18:53:10.040Z,13.90
2023-05-13T18:57:32.258Z,13.80
2023-05-13T19:01:54.167Z,13.70
2023-05-13T19:06:16.304Z,13.60
2023-05-13T19:10:40.140Z,13.50
2023-05-13T19:15:02.642Z,13.40
2023-05-13T19:19:24.938Z,13.30
2023-05-13T19:23:46.826Z,13.30
2023-05-13T19:28:10.194Z,13.20
2023-05-13T19:32:32.157Z,13.20
2023-05-13T19:36:54.114Z,13.10
2023-05-13T19:41:16.295Z,13.10
2023-05-13T19:45:38.065Z,13.00
2023-05-13T19:50:00.273Z,13.00
2023-05-13T19:54:22.374Z,13.00
2023-05-13T19:58:44.262Z,13.00
2023-05-13T20:03:06.445Z,12.90
2023-05-13T20:07:29.013Z,12.90
2023-05-13T20:11:51.474Z,12.90
2023-05-13T20:16:14.173Z,12.80
2023-05-13T20:20:36.174Z,12.70
2023-05-13T20:24:58.194Z,12.70
2023-05-13T20:29:20.079Z,12.70
2023-05-13T20:33:42.386Z,12.70
2023-05-13T20:38:04.579Z,12.60
2023-05-13T20:42:27.459Z,12.40
2023-05-13T20:46:50.439Z,12.20
2023-05-13T20:51:15.801Z,11.90
2023-05-13T20:55:38.249Z,11.80
2023-05-13T21:00:00.059Z,11.50
2023-05-13T21:04:23.590Z,11.40
2023-05-13T21:08:47.888Z,11.30
2023-05-13T21:13:10.178Z,11.20
2023-05-13T21:17:32.641Z,11.00
2023-05-13T21:21:54.400Z,10.90
2023-05-13T21:26:17.087Z,10.80
2023-05-13T21:30:39.342Z,10.80
2023-05-13T21:35:02.168Z,10.70
2023-05-13T21:39:24.179Z,10.70
2023-05-13T21:43:46.724Z,10.80
2023-05-13T21:48:08.682Z,10.70
2023-05-13T21:52:31.253Z,10.70
2023-05-13T21:56:53.293Z,10.80
2023-05-13T22:01:15.471Z,10.80
2023-05-13T22:05:43.775Z,10.80
2023-05-13T22:10:07.032Z,10.80
2023-05-13T22:14:28.960Z,10.90
2023-05-13T22:18:51.284Z,10.90
2023-05-13T22:23:13.729Z,10.90
2023-05-13T22:27:36.017Z,10.80
2023-05-13T22:31:58.425Z,10.70
2023-05-13T22:36:20.864Z,10.60
2023-05-13T22:40:42.969Z,10.50
2023-05-13T22:45:05.621Z,10.40
2023-05-13T22:49:27.728Z,10.40
2023-05-13T22:53:49.738Z,10.30
2023-05-13T22:58:12.138Z,10.20
2023-05-13T23:02:34.521Z,10.00
2023-05-13T23:06:56.618Z,9.80
2023-05-13T23:11:18.598Z,9.60
2023-05-13T23:15:40.588Z,9.60
2023-05-13T23:20:02.841Z,9.50
2023-05-13T23:24:24.935Z,9.40
2023-05-13T23:28:47.137Z,9.30
2023-05-13T23:33:09.774Z,9.30
2023-05-13T23:37:31.741Z,9.20
2023-05-13T23:41:53.934Z,9.20
2023-05-13T23:46:15.961Z,9.10
2023-05-13T23:50:38.094Z,9.00
2023-05-13T23:55:00.996Z,9.00
2023-05-13T23:59:22.939Z,9.00
